Time;durP1;ratioP1;P1;durP2;ratioP2;P2;SDS_P1;SDS_P2;PMS_P1;PMS_P2;Temp;Humidity;BMP_temperature;BMP_pressure;BME280_temperature;BME280_humidity;BME280_pressure;Samples;Min_cycle;Max_cycle;Signal;HPM_P1;HPM_P2
2023/03/06 00:00:55;;;;;;;5.75;1.60;;;35.40;82.90;;;;;;5050966;28;20189;-71
2023/03/06 00:03:26;;;;;;;10.18;1.70;;;35.60;79.60;;;;;;5048639;28;20185;-72
2023/03/06 00:05:56;;;;;;;4.40;1.60;;;35.50;77.50;;;;;;5049258;28;20212;-72
2023/03/06 00:08:24;;;;;;;6.13;1.27;;;35.20;77.20;;;;;;5051795;28;20212;-73
2023/03/06 00:10:52;;;;;;;9.95;1.70;;;35.20;76.30;;;;;;5052460;28;20659;-72
2023/03/06 00:13:19;;;;;;;3.35;1.52;;;36.00;73.60;;;;;;5052442;28;20641;-72
2023/03/06 00:15:47;;;;;;;7.15;1.85;;;35.80;71.70;;;;;;5049233;28;20193;-71
2023/03/06 00:18:15;;;;;;;6.28;1.52;;;36.30;71.20;;;;;;5052210;28;20224;-72
2023/03/06 00:20:44;;;;;;;8.68;2.10;;;36.40;66.70;;;;;;5052310;28;20189;-72
2023/03/06 00:23:12;;;;;;;20.20;2.75;;;36.60;65.60;;;;;;5049171;28;20330;-72
2023/03/06 00:25:43;;;;;;;15.20;1.95;;;36.50;63.30;;;;;;5051177;28;20220;-71
2023/03/06 00:28:11;;;;;;;11.60;2.00;;;36.60;61.60;;;;;;5051828;28;20263;-71
2023/03/06 00:30:38;;;;;;;4.05;1.40;;;36.50;61.30;;;;;;5051726;28;20180;-72
2023/03/06 00:33:06;;;;;;;4.13;1.45;;;36.30;59.20;;;;;;5048256;28;20542;-71
2023/03/06 00:35:33;;;;;;;5.50;1.40;;;36.50;58.90;;;;;;5050236;28;20259;-73
2023/03/06 00:38:00;;;;;;;2.25;1.50;;;36.50;60.00;;;;;;5051746;28;20187;-71
2023/03/06 00:40:28;;;;;;;4.50;1.45;;;36.90;59.60;;;;;;5062478;28;20180;-71
2023/03/06 00:42:55;;;;;;;5.18;1.60;;;36.90;58.60;;;;;;5072100;28;20187;-71
2023/03/06 00:45:23;;;;;;;8.48;1.92;;;36.80;57.00;;;;;;5068705;28;20219;-71
2023/03/06 00:47:50;;;;;;;5.20;1.60;;;36.50;59.90;;;;;;5051996;28;20168;-71
2023/03/06 00:50:17;;;;;;;8.75;1.67;;;36.70;57.10;;;;;;5050354;28;20251;-70
2023/03/06 00:52:45;;;;;;;7.93;2.22;;;36.80;57.40;;;;;;5050816;28;20184;-72
2023/03/06 00:55:12;;;;;;;6.28;1.77;;;36.80;56.20;;;;;;5051733;28;20207;-71
2023/03/06 00:57:40;;;;;;;12.07;2.03;;;36.90;56.20;;;;;;5051747;28;20215;-72
2023/03/06 01:00:09;;;;;;;7.95;1.67;;;36.70;56.10;;;;;;5050887;28;20188;-71
2023/03/06 01:02:36;;;;;;;3.78;1.85;;;37.00;56.60;;;;;;5050063;28;20188;-71
2023/03/06 01:05:04;;;;;;;11.73;1.73;;;37.10;55.00;;;;;;5050692;28;20224;-72
2023/03/06 01:07:35;;;;;;;3.75;1.73;;;37.10;54.70;;;;;;5050726;28;20188;-73
2023/03/06 01:10:06;;;;;;;5.38;1.73;;;37.00;53.50;;;;;;5050536;28;20216;-72
2023/03/06 01:12:34;;;;;;;10.70;2.00;;;37.40;56.80;;;;;;5050802;28;20646;-73
2023/03/06 01:15:02;;;;;;;4.80;1.75;;;37.10;51.80;;;;;;5051489;28;20177;-73
2023/03/06 01:17:30;;;;;;;5.85;1.83;;;37.10;51.40;;;;;;5051528;28;20186;-72
2023/03/06 01:19:58;;;;;;;6.97;1.90;;;37.10;53.50;;;;;;5050882;28;20208;-71
2023/03/06 01:22:25;;;;;;;5.53;1.90;;;37.10;52.80;;;;;;5050644;28;20242;-71
2023/03/06 01:24:53;;;;;;;10.52;1.88;;;37.20;51.00;;;;;;5051487;28;20243;-70
2023/03/06 01:27:20;;;;;;;8.55;1.50;;;37.30;50.90;;;;;;5050446;28;20187;-71
2023/03/06 01:29:48;;;;;;;2.55;1.40;;;37.00;49.10;;;;;;5050905;28;20200;-72
2023/03/06 01:32:15;;;;;;;9.43;1.70;;;37.20;50.20;;;;;;5050504;28;20198;-72
2023/03/06 01:34:42;;;;;;;7.75;1.90;;;37.80;50.50;;;;;;5051397;28;20207;-71
2023/03/06 01:37:10;;;;;;;9.77;2.08;;;38.10;48.90;;;;;;5051235;28;20204;-71
2023/03/06 01:39:37;;;;;;;9.07;2.03;;;38.10;46.60;;;;;;5051590;28;20183;-72
2023/03/06 01:42:05;;;;;;;5.25;1.85;;;37.80;46.40;;;;;;5050523;28;20208;-72
2023/03/06 01:44:32;;;;;;;17.70;2.08;;;38.00;46.60;;;;;;5050215;28;20220;-71
2023/03/06 01:47:01;;;;;;;12.40;2.10;;;37.40;46.40;;;;;;5049884;28;20609;-71
2023/03/06 01:49:39;;;;;;;3.75;1.65;;;38.10;47.30;;;;;;5048447;28;20189;-70
2023/03/06 01:52:11;;;;;;;9.98;1.92;;;38.50;46.70;;;;;;5053654;28;20207;-70
2023/03/06 01:54:44;;;;;;;6.55;1.75;;;38.70;46.40;;;;;;5053612;28;20199;-70
2023/03/06 01:57:27;;;;;;;12.77;1.92;;;39.30;46.70;;;;;;5054586;28;20668;-70
2023/03/06 02:00:19;;;;;;;7.90;1.58;;;39.20;42.50;;;;;;5052577;28;20191;-71
2023/03/06 02:02:57;;;;;;;8.93;1.60;;;39.00;41.60;;;;;;5051795;28;20193;-71
2023/03/06 02:05:25;;;;;;;6.75;1.42;;;39.20;42.90;;;;;;5050517;28;20212;-71
2023/03/06 02:07:53;;;;;;;9.13;1.50;;;38.80;41.70;;;;;;5054426;28;20173;-71
2023/03/06 02:10:21;;;;;;;8.07;1.77;;;38.50;43.00;;;;;;5053358;28;20242;-71
2023/03/06 02:12:51;;;;;;;8.38;1.60;;;38.60;41.80;;;;;;5053070;28;20212;-70
2023/03/06 02:15:21;;;;;;;7.13;2.05;;;38.70;42.30;;;;;;5054064;28;20197;-71
2023/03/06 02:17:50;;;;;;;9.82;2.08;;;38.70;42.40;;;;;;5050680;28;20224;-70
2023/03/06 02:20:36;;;;;;;4.50;1.27;;;38.90;42.30;;;;;;5054676;28;20211;-70
2023/03/06 02:23:09;;;;;;;7.40;1.50;;;38.90;39.70;;;;;;5054265;28;20195;-70
2023/03/06 02:25:41;;;;;;;6.82;1.70;;;39.50;42.30;;;;;;5054367;28;20678;-70
2023/03/06 02:28:17;;;;;;;8.95;1.98;;;39.60;38.80;;;;;;5054371;28;20250;-70
2023/03/06 02:30:46;;;;;;;8.05;2.15;;;39.50;41.30;;;;;;5053158;28;20177;-71
2023/03/06 02:33:15;;;;;;;7.13;1.80;;;39.30;39.90;;;;;;5054270;28;20259;-71
2023/03/06 02:35:59;;;;;;;11.40;1.50;;;39.40;38.20;;;;;;5054091;28;20689;-72
2023/03/06 02:38:43;;;;;;;6.30;1.60;;;39.50;37.80;;;;;;5054256;28;20185;-72
2023/03/06 02:41:11;;;;;;;6.95;1.50;;;39.40;37.10;;;;;;5054134;28;20230;-71
2023/03/06 02:43:40;;;;;;;9.68;2.53;;;39.30;37.90;;;;;;5052623;28;20222;-70
2023/03/06 02:46:07;;;;;;;3.90;1.35;;;38.90;37.00;;;;;;5054089;28;20189;-71
2023/03/06 02:48:35;;;;;;;3.35;1.20;;;39.20;35.70;;;;;;5054137;28;20667;-70
2023/03/06 02:51:03;;;;;;;6.45;1.30;;;39.20;34.80;;;;;;5053943;28;20184;-71
2023/03/06 02:53:30;;;;;;;6.00;1.15;;;39.30;35.40;;;;;;5054089;28;20175;-71
2023/03/06 02:55:57;;;;;;;4.45;1.58;;;39.70;33.50;;;;;;5054002;28;20654;-70
2023/03/06 02:58:25;;;;;;;4.35;1.00;;;39.70;33.50;;;;;;5053748;28;20187;-70
2023/03/06 03:00:52;;;;;;;5.03;1.48;;;39.70;35.60;;;;;;5049003;28;20181;-71
2023/03/06 03:03:20;;;;;;;3.85;1.48;;;39.70;33.80;;;;;;5033821;28;20189;-71
2023/03/06 03:05:47;;;;;;;7.22;1.65;;;39.80;33.50;;;;;;5033698;28;20209;-71
2023/03/06 03:08:14;;;;;;;11.15;1.60;;;39.40;34.30;;;;;;5033877;28;20257;-71
2023/03/06 03:10:42;;;;;;;4.13;1.30;;;39.30;33.30;;;;;;5033787;28;20181;-71
2023/03/06 03:13:09;;;;;;;4.68;1.38;;;39.30;32.60;;;;;;5033504;28;20565;-70
2023/03/06 03:15:37;;;;;;;6.63;1.33;;;39.40;33.50;;;;;;5035963;28;20173;-71
2023/03/06 03:18:04;;;;;;;11.10;1.80;;;39.80;34.40;;;;;;5053444;28;20303;-71
2023/03/06 03:20:32;;;;;;;1.90;1.20;;;39.70;31.50;;;;;;5067148;28;20188;-71
2023/03/06 03:22:59;;;;;;;3.80;1.20;;;39.40;31.30;;;;;;5051774;28;20193;-71
2023/03/06 03:25:27;;;;;;;11.50;1.60;;;39.10;31.20;;;;;;5053354;28;20209;-71
2023/03/06 03:27:54;;;;;;;7.00;1.27;;;38.90;31.20;;;;;;5053302;28;20650;-71
2023/03/06 03:30:22;;;;;;;5.40;1.38;;;39.30;31.90;;;;;;5059590;28;20199;-71
2023/03/06 03:32:49;;;;;;;6.35;1.30;;;39.20;31.90;;;;;;5062079;28;20234;-72
2023/03/06 03:35:17;;;;;;;6.30;1.20;;;39.30;31.00;;;;;;5044380;28;20311;-72
2023/03/06 03:37:44;;;;;;;2.78;1.42;;;39.30;30.00;;;;;;5034541;28;20180;-72
2023/03/06 03:40:12;;;;;;;4.20;1.20;;;39.10;29.50;;;;;;5036176;28;20222;-72
2023/03/06 03:42:39;;;;;;;4.20;1.10;;;39.50;26.20;;;;;;5051775;28;20666;-72
2023/03/06 03:45:07;;;;;;;1.75;0.82;;;39.90;22.10;;;;;;5052854;28;20293;-73
2023/03/06 03:51:05;;;;;;;6.97;1.17;;;40.20;17.40;;;;;;5044883;28;20254;-72
2023/03/06 03:53:33;;;;;;;2.58;0.90;;;39.70;18.80;;;;;;5051212;28;20688;-72
2023/03/06 03:56:00;;;;;;;12.20;0.75;;;40.30;18.70;;;;;;5052097;28;20646;-73
2023/03/06 03:58:28;;;;;;;4.13;0.63;;;40.30;16.50;;;;;;5051581;28;20215;-73
2023/03/06 04:00:55;;;;;;;5.45;0.80;;;40.00;15.70;;;;;;5052811;28;20169;-72
2023/03/06 04:03:23;;;;;;;3.67;0.60;;;40.30;15.70;;;;;;5055120;28;20707;-72
2023/03/06 04:05:53;;;;;;;1.67;0.70;;;40.30;16.10;;;;;;5052085;28;20208;-70
2023/03/06 04:08:21;;;;;;;1.67;0.75;;;39.70;15.70;;;;;;5052092;28;20184;-72
2023/03/06 04:10:48;;;;;;;7.03;0.90;;;39.60;16.30;;;;;;5051609;28;20642;-71
2023/03/06 04:13:18;;;;;;;2.35;0.70;;;39.80;16.90;;;;;;5049878;28;20246;-72
2023/03/06 04:15:49;;;;;;;14.10;1.15;;;40.10;17.50;;;;;;5050437;28;20193;-71
2023/03/06 04:18:18;;;;;;;2.45;0.55;;;39.90;13.40;;;;;;5050850;28;20271;-71
2023/03/06 04:20:47;;;;;;;3.38;0.57;;;39.80;15.20;;;;;;5050619;28;20216;-71
2023/03/06 04:23:15;;;;;;;4.25;0.73;;;39.70;14.40;;;;;;5040553;28;20208;-72
2023/03/06 04:25:43;;;;;;;4.70;1.00;;;39.40;13.70;;;;;;5031854;28;20221;-71
2023/03/06 04:28:11;;;;;;;4.28;0.77;;;39.70;14.20;;;;;;5031874;28;20649;-70
2023/03/06 04:30:39;;;;;;;5.50;0.90;;;39.30;13.30;;;;;;5037730;28;20181;-71
2023/03/06 04:33:06;;;;;;;6.95;0.80;;;39.50;13.60;;;;;;5049385;28;20184;-71
2023/03/06 04:35:34;;;;;;;0.98;0.30;;;39.80;14.00;;;;;;5048936;28;20197;-69
2023/03/06 04:38:02;;;;;;;2.97;0.65;;;39.30;12.60;;;;;;5051378;28;20547;-70
2023/03/06 04:40:31;;;;;;;5.82;0.75;;;39.20;12.60;;;;;;5050995;28;20590;-71
2023/03/06 04:43:00;;;;;;;3.17;0.60;;;39.60;13.40;;;;;;5051745;28;20641;-71
2023/03/06 04:45:29;;;;;;;3.17;0.77;;;40.00;12.90;;;;;;5065774;28;20235;-71
2023/03/06 04:47:57;;;;;;;2.13;0.75;;;40.20;12.30;;;;;;5049684;28;20188;-72
2023/03/06 04:50:26;;;;;;;3.40;0.65;;;40.20;12.80;;;;;;5050595;28;20188;-71
2023/03/06 04:52:54;;;;;;;4.05;0.75;;;40.00;12.40;;;;;;5035527;28;20226;-70
2023/03/06 04:55:21;;;;;;;5.32;0.90;;;40.00;12.60;;;;;;5048366;28;20199;-70
2023/03/06 04:57:49;;;;;;;2.10;0.95;;;40.20;11.50;;;;;;5058253;28;20191;-72
2023/03/06 05:00:20;;;;;;;3.50;1.00;;;40.50;11.60;;;;;;5051397;28;20192;-72
2023/03/06 05:02:48;;;;;;;1.48;0.70;;;40.60;11.80;;;;;;5051063;28;20172;-70
2023/03/06 05:05:16;;;;;;;8.10;1.17;;;40.80;12.50;;;;;;5048441;28;20212;-71
2023/03/06 05:07:44;;;;;;;3.20;0.68;;;40.70;11.30;;;;;;5049118;28;20196;-71
2023/03/06 05:10:14;;;;;;;4.22;0.73;;;40.80;11.90;;;;;;5049722;28;20184;-69
2023/03/06 05:12:42;;;;;;;6.00;0.77;;;40.90;11.20;;;;;;5051077;28;20255;-69
2023/03/06 05:15:11;;;;;;;6.00;0.90;;;40.50;11.10;;;;;;5051379;28;20181;-70
2023/03/06 05:17:39;;;;;;;2.45;0.80;;;39.70;10.90;;;;;;5049412;28;20192;-71
2023/03/06 05:20:08;;;;;;;7.03;0.90;;;39.90;11.00;;;;;;5051157;28;20242;-70
2023/03/06 05:22:36;;;;;;;1.45;0.50;;;39.90;10.40;;;;;;5049787;28;20185;-71
2023/03/06 05:25:04;;;;;;;6.65;0.68;;;39.70;10.60;;;;;;5055287;28;20230;-72
2023/03/06 05:27:32;;;;;;;4.25;0.50;;;39.30;10.50;;;;;;5054249;28;20610;-71
2023/03/06 05:29:59;;;;;;;3.10;0.50;;;39.20;10.30;;;;;;5054439;28;20704;-71
2023/03/06 05:32:27;;;;;;;8.07;0.77;;;39.10;10.60;;;;;;5054330;28;20191;-71
2023/03/06 05:34:55;;;;;;;2.78;0.60;;;39.00;9.40;;;;;;5055064;28;20226;-72
2023/03/06 05:37:22;;;;;;;2.33;0.95;;;39.20;9.50;;;;;;5053416;28;20568;-72
2023/03/06 05:39:50;;;;;;;2.15;0.80;;;39.40;9.10;;;;;;5037213;28;20199;-71
2023/03/06 05:42:18;;;;;;;3.65;0.60;;;39.70;9.30;;;;;;5054051;28;20220;-71
2023/03/06 05:44:45;;;;;;;4.70;0.63;;;39.80;9.30;;;;;;5053763;28;20232;-71
2023/03/06 05:47:12;;;;;;;1.05;0.50;;;39.60;8.70;;;;;;5054658;28;20177;-71
2023/03/06 05:49:40;;;;;;;7.30;0.55;;;39.50;9.50;;;;;;5054768;28;20204;-73
2023/03/06 05:52:08;;;;;;;4.82;0.50;;;39.30;9.20;;;;;;5054811;28;20172;-71
2023/03/06 05:54:36;;;;;;;2.80;0.60;;;39.00;8.40;;;;;;5053017;28;20680;-72
2023/03/06 05:57:05;;;;;;;5.85;0.70;;;38.90;9.50;;;;;;5054124;28;20243;-72
2023/03/06 05:59:33;;;;;;;1.30;0.63;;;39.10;9.30;;;;;;5037193;28;20276;-71
2023/03/06 06:02:02;;;;;;;1.50;0.50;;;39.30;9.80;;;;;;5049279;28;20216;-73
2023/03/06 06:04:30;;;;;;;2.00;0.88;;;39.40;8.60;;;;;;5048621;28;20223;-72
2023/03/06 06:06:59;;;;;;;3.25;0.85;;;39.30;8.90;;;;;;5049514;28;20193;-70
2023/03/06 06:09:27;;;;;;;1.67;0.80;;;39.00;8.10;;;;;;5051260;28;20192;-70
2023/03/06 06:11:57;;;;;;;4.15;0.80;;;38.90;8.40;;;;;;5054144;28;20208;-70
2023/03/06 06:14:25;;;;;;;1.58;0.52;;;38.90;8.90;;;;;;5054240;28;20192;-70
2023/03/06 06:16:53;;;;;;;3.00;0.82;;;38.60;8.60;;;;;;5054379;28;20180;-70
2023/03/06 06:19:22;;;;;;;2.83;0.82;;;38.60;9.60;;;;;;5053101;28;20684;-70
2023/03/06 06:21:52;;;;;;;4.57;1.00;;;38.80;9.70;;;;;;5052458;28;20168;-71
2023/03/06 06:24:22;;;;;;;7.88;0.80;;;39.00;9.90;;;;;;5053617;28;20200;-70
2023/03/06 06:26:55;;;;;;;2.72;0.50;;;39.00;9.50;;;;;;5054064;28;20661;-71
2023/03/06 06:29:23;;;;;;;3.47;1.17;;;39.10;8.70;;;;;;5053562;28;20176;-70
2023/03/06 06:31:51;;;;;;;5.55;0.85;;;39.20;8.20;;;;;;5050891;28;20671;-71
2023/03/06 06:34:19;;;;;;;4.95;0.65;;;39.30;7.90;;;;;;5041426;28;20199;-71
2023/03/06 06:36:47;;;;;;;6.47;1.02;;;39.30;7.80;;;;;;5053473;28;20185;-71
2023/03/06 06:39:17;;;;;;;6.43;0.95;;;39.30;8.90;;;;;;5053770;28;20542;-71
2023/03/06 06:41:47;;;;;;;5.20;0.65;;;39.10;8.00;;;;;;5053345;28;20647;-71
2023/03/06 06:44:15;;;;;;;4.00;0.65;;;39.10;8.20;;;;;;5053343;28;20274;-71
2023/03/06 06:46:44;;;;;;;5.10;0.68;;;39.10;8.50;;;;;;5069240;28;20185;-70
2023/03/06 06:49:12;;;;;;;2.17;0.60;;;39.20;8.60;;;;;;5054104;28;20961;-71
2023/03/06 06:51:41;;;;;;;2.90;0.50;;;38.80;7.80;;;;;;5055408;28;20199;-72
2023/03/06 06:54:09;;;;;;;3.90;0.82;;;38.50;7.80;;;;;;5055832;28;20168;-73
2023/03/06 06:56:36;;;;;;;0.98;0.40;;;38.40;7.90;;;;;;5053781;28;20176;-73
2023/03/06 06:59:04;;;;;;;4.50;0.90;;;38.40;7.00;;;;;;5053637;28;20191;-72
2023/03/06 07:01:31;;;;;;;2.63;0.68;;;38.10;8.20;;;;;;5045063;28;20451;-72
2023/03/06 07:03:59;;;;;;;2.42;0.77;;;38.00;9.00;;;;;;5053396;28;20255;-72
2023/03/06 07:06:26;;;;;;;0.80;0.60;;;38.00;9.30;;;;;;5068333;28;21002;-72
2023/03/06 07:08:54;;;;;;;4.13;0.68;;;37.80;8.70;;;;;;5053518;28;20173;-71
2023/03/06 07:11:21;;;;;;;3.35;0.50;;;37.60;8.60;;;;;;5050920;28;20716;-72
2023/03/06 07:13:49;;;;;;;2.25;0.55;;;37.50;8.40;;;;;;5050166;28;20184;-72
2023/03/06 07:16:17;;;;;;;3.92;0.95;;;37.40;8.40;;;;;;5052709;28;20525;-72
2023/03/06 07:18:45;;;;;;;2.88;0.57;;;37.60;8.30;;;;;;5052379;28;20239;-71
2023/03/06 07:21:13;;;;;;;3.50;0.75;;;37.80;8.60;;;;;;5052375;28;20204;-73
2023/03/06 07:23:40;;;;;;;3.22;0.95;;;37.70;8.80;;;;;;5052807;28;20199;-72
2023/03/06 07:26:08;;;;;;;2.17;0.70;;;37.60;9.30;;;;;;5052043;28;20232;-74
2023/03/06 07:28:36;;;;;;;3.58;0.63;;;37.40;9.60;;;;;;5052906;28;20260;-71
2023/03/06 07:31:10;;;;;;;1.85;0.47;;;37.30;9.70;;;;;;5045803;28;20685;-72
2023/03/06 07:33:38;;;;;;;3.88;0.63;;;37.10;9.80;;;;;;5048114;28;20196;-72
2023/03/06 07:36:09;;;;;;;1.45;0.50;;;37.10;9.70;;;;;;5048688;28;20627;-72
2023/03/06 07:38:37;;;;;;;3.72;0.70;;;37.10;10.00;;;;;;5048274;28;20195;-72
2023/03/06 07:41:07;;;;;;;4.70;0.52;;;37.10;9.50;;;;;;5049585;28;20185;-72
2023/03/06 07:43:34;;;;;;;2.08;0.60;;;37.00;9.30;;;;;;5042359;28;20241;-72
2023/03/06 07:46:01;;;;;;;1.13;0.52;;;36.90;9.00;;;;;;5052244;28;20216;-71
2023/03/06 07:48:29;;;;;;;1.33;0.50;;;36.90;9.40;;;;;;5051788;28;20180;-70
2023/03/06 07:51:03;;;;;;;5.18;0.70;;;36.80;9.20;;;;;;5046565;28;20189;-71
2023/03/06 07:53:30;;;;;;;7.53;0.98;;;36.60;9.30;;;;;;5050277;28;20279;-70
2023/03/06 07:55:58;;;;;;;11.13;0.82;;;36.50;9.80;;;;;;5052625;28;20193;-71
2023/03/06 07:58:26;;;;;;;2.08;0.60;;;36.40;9.50;;;;;;5068493;28;20189;-71
2023/03/06 08:00:54;;;;;;;5.03;0.60;;;36.40;9.00;;;;;;5051298;28;20189;-71
2023/03/06 08:03:21;;;;;;;0.43;0.40;;;36.30;8.90;;;;;;5052001;28;20193;-71
2023/03/06 08:05:48;;;;;;;2.38;0.45;;;36.20;8.70;;;;;;5052731;28;20244;-71
2023/03/06 08:08:16;;;;;;;0.98;0.70;;;36.20;8.70;;;;;;5051682;28;20208;-70
2023/03/06 08:10:48;;;;;;;0.88;0.68;;;36.20;8.80;;;;;;5051941;28;20184;-71
2023/03/06 08:13:15;;;;;;;1.33;0.65;;;36.00;9.10;;;;;;5049912;28;20582;-70
2023/03/06 08:15:48;;;;;;;3.05;0.77;;;35.80;9.70;;;;;;5052797;28;20242;-71
2023/03/06 08:18:15;;;;;;;4.53;0.90;;;35.70;9.70;;;;;;5053146;28;20234;-71
2023/03/06 08:20:43;;;;;;;3.83;0.90;;;35.60;9.70;;;;;;5051425;28;20544;-71
2023/03/06 08:23:10;;;;;;;2.33;0.60;;;35.60;10.10;;;;;;5053297;28;20183;-70
2023/03/06 08:25:38;;;;;;;1.38;0.70;;;35.50;10.10;;;;;;5051625;28;20212;-71
2023/03/06 08:28:05;;;;;;;2.85;0.80;;;35.40;10.40;;;;;;5053007;28;20603;-71
2023/03/06 08:30:33;;;;;;;5.18;0.70;;;35.30;10.70;;;;;;5052884;28;20183;-72
2023/03/06 08:33:00;;;;;;;3.65;0.80;;;35.10;11.20;;;;;;5050213;28;20638;-70
2023/03/06 08:35:28;;;;;;;2.50;0.60;;;35.00;11.00;;;;;;5051800;28;20658;-71
2023/03/06 08:37:55;;;;;;;4.82;0.77;;;35.00;11.00;;;;;;5052510;28;20168;-72
2023/03/06 08:40:25;;;;;;;3.90;0.70;;;34.90;11.20;;;;;;5052686;28;20181;-71
2023/03/06 08:42:53;;;;;;;2.00;0.60;;;34.80;11.50;;;;;;5051703;28;20192;-71
2023/03/06 08:45:20;;;;;;;1.42;0.50;;;34.80;11.60;;;;;;5051648;28;20220;-70
2023/03/06 08:47:48;;;;;;;6.70;0.75;;;34.60;11.90;;;;;;5051116;28;20181;-71
2023/03/06 08:50:15;;;;;;;3.83;0.80;;;34.50;11.90;;;;;;5052766;28;20267;-72
2023/03/06 08:52:42;;;;;;;2.58;0.80;;;34.40;12.10;;;;;;5051702;28;20181;-72
2023/03/06 08:55:10;;;;;;;3.63;1.33;;;34.30;12.40;;;;;;5051667;28;20208;-72
2023/03/06 08:57:37;;;;;;;1.92;0.90;;;34.10;12.70;;;;;;5052118;28;20629;-71
2023/03/06 09:00:07;;;;;;;0.80;0.60;;;33.90;13.10;;;;;;5052523;28;20192;-72
2023/03/06 09:02:35;;;;;;;5.93;0.80;;;33.70;13.20;;;;;;5052461;28;20303;-71
2023/03/06 09:05:06;;;;;;;1.63;0.65;;;33.50;13.90;;;;;;5050957;28;20231;-72
2023/03/06 09:07:34;;;;;;;6.25;0.88;;;33.30;14.50;;;;;;5051565;28;20667;-71
2023/03/06 09:10:02;;;;;;;1.95;0.50;;;33.00;15.50;;;;;;5051677;28;20199;-72
2023/03/06 09:12:29;;;;;;;2.95;0.77;;;32.80;15.80;;;;;;5051510;28;20681;-71
2023/03/06 09:14:57;;;;;;;11.60;1.00;;;32.50;16.60;;;;;;5050365;28;20620;-71
2023/03/06 09:17:24;;;;;;;4.90;0.77;;;32.40;17.90;;;;;;5047941;28;20185;-70
2023/03/06 09:19:52;;;;;;;5.97;1.13;;;32.10;18.30;;;;;;5032191;28;20236;-71
2023/03/06 09:22:19;;;;;;;3.42;0.68;;;31.90;17.60;;;;;;5032090;28;20173;-71
2023/03/06 09:24:47;;;;;;;4.05;1.00;;;31.80;19.90;;;;;;5039070;28;20212;-71
2023/03/06 09:27:14;;;;;;;3.72;0.90;;;31.60;21.90;;;;;;5050309;28;20180;-70
2023/03/06 09:29:41;;;;;;;2.15;1.00;;;31.30;22.30;;;;;;5052296;28;20184;-71
2023/03/06 09:32:09;;;;;;;3.95;0.90;;;31.10;23.40;;;;;;5051711;28;20510;-70
2023/03/06 09:34:36;;;;;;;1.98;0.98;;;30.90;24.10;;;;;;5051105;28;20181;-71
2023/03/06 09:37:04;;;;;;;7.20;1.13;;;30.80;24.40;;;;;;5052206;28;20176;-71
2023/03/06 09:39:31;;;;;;;4.38;1.08;;;30.70;25.80;;;;;;5051068;28;20184;-71
2023/03/06 09:41:59;;;;;;;3.88;1.40;;;30.50;28.30;;;;;;5051743;28;20635;-70
2023/03/06 09:44:29;;;;;;;4.85;1.40;;;30.50;35.10;;;;;;5050291;28;20236;-71
2023/03/06 09:50:43;;;;;;;9.15;1.77;;;30.30;53.30;;;;;;5051170;28;20183;-72
2023/03/06 09:53:32;;;;;;;7.93;2.33;;;30.20;66.10;;;;;;5051633;28;20307;-71
2023/03/06 09:56:18;;;;;;;8.23;2.03;;;30.20;80.70;;;;;;5049979;28;20283;-71
2023/03/06 09:58:55;;;;;;;5.95;2.15;;;30.10;89.10;;;;;;5052042;28;20172;-71
2023/03/06 10:01:30;;;;;;;6.43;1.70;;;30.00;95.30;;;;;;5050876;28;20541;-71
2023/03/06 10:04:09;;;;;;;5.22;1.98;;;29.80;98.30;;;;;;5051894;28;20188;-70
2023/03/06 10:06:40;;;;;;;5.07;1.90;;;29.60;99.90;;;;;;5051068;28;20242;-71
2023/03/06 10:09:23;;;;;;;6.40;1.70;;;29.50;99.90;;;;;;5052496;28;20531;-70
2023/03/06 10:12:30;;;;;;;5.87;2.30;;;29.30;99.90;;;;;;5054521;28;20642;-71
2023/03/06 10:15:00;;;;;;;9.27;1.63;;;29.20;99.90;;;;;;5047373;28;20192;-71
2023/03/06 10:17:36;;;;;;;8.38;1.95;;;29.10;99.90;;;;;;5055486;28;20650;-71
2023/03/06 10:20:25;;;;;;;6.60;1.97;;;29.10;99.90;;;;;;5055390;28;20665;-71
2023/03/06 10:23:09;;;;;;;5.60;1.90;;;28.90;99.90;;;;;;5055724;28;20521;-71
2023/03/06 10:25:41;;;;;;;4.23;1.40;;;28.70;99.90;;;;;;5052851;28;20212;-71
2023/03/06 10:28:18;;;;;;;11.83;2.33;;;28.50;99.90;;;;;;5054471;28;20712;-71
2023/03/06 10:30:51;;;;;;;4.47;2.23;;;28.40;99.90;;;;;;5054656;28;20191;-71
2023/03/06 10:33:29;;;;;;;7.87;2.37;;;28.20;99.90;;;;;;5052894;28;20725;-71
2023/03/06 10:39:21;;;;;;;5.70;2.13;;;28.00;99.90;;;;;;5054359;28;20187;-71
2023/03/06 10:41:49;;;;;;;4.43;1.90;;;27.90;99.90;;;;;;5053813;28;20668;-72
2023/03/06 10:44:19;;;;;;;6.70;1.63;;;27.70;99.90;;;;;;5054798;28;20241;-71
2023/03/06 10:46:50;;;;;;;5.73;2.20;;;27.60;99.90;;;;;;5050814;28;20189;-71
2023/03/06 10:49:26;;;;;;;6.63;2.23;;;27.40;99.90;;;;;;5054680;28;20548;-71
2023/03/06 10:52:01;;;;;;;9.93;2.83;;;27.30;99.90;;;;;;5054982;28;20172;-70
2023/03/06 10:54:35;;;;;;;9.33;2.30;;;27.30;99.90;;;;;;5053017;28;20210;-72
2023/03/06 10:57:28;;;;;;;10.33;2.60;;;27.30;99.90;;;;;;5050592;28;20196;-71
2023/03/06 11:00:04;;;;;;;11.07;2.57;;;27.30;99.90;;;;;;5049641;28;20199;-71
2023/03/06 11:02:37;;;;;;;7.37;2.43;;;27.20;99.90;;;;;;5052823;28;20519;-72
2023/03/06 11:05:06;;;;;;;5.20;2.53;;;27.10;99.90;;;;;;5052465;28;20216;-71
2023/03/06 11:07:35;;;;;;;7.47;2.50;;;27.00;99.90;;;;;;5054681;28;20238;-71
2023/03/06 11:10:19;;;;;;;7.93;2.53;;;26.90;99.90;;;;;;5053687;28;20192;-71
2023/03/06 11:13:07;;;;;;;9.97;2.40;;;26.80;99.90;;;;;;5053015;28;20212;-71
2023/03/06 11:15:35;;;;;;;7.47;2.67;;;26.70;99.90;;;;;;5054443;28;20193;-71
2023/03/06 11:18:04;;;;;;;10.57;2.53;;;26.60;99.90;;;;;;5053917;28;20307;-71
2023/03/06 11:20:35;;;;;;;6.57;2.83;;;26.50;99.90;;;;;;5054255;28;20546;-71
2023/03/06 11:23:15;;;;;;;8.40;2.87;;;26.50;99.90;;;;;;5054043;28;20208;-71
2023/03/06 11:25:50;;;;;;;8.50;3.10;;;26.40;99.90;;;;;;5054082;28;20244;-71
2023/03/06 11:28:34;;;;;;;8.20;2.53;;;26.40;99.90;;;;;;5054278;28;20263;-71
2023/03/06 11:31:11;;;;;;;7.37;2.30;;;26.30;99.90;;;;;;5053783;28;20700;-70
2023/03/06 11:33:50;;;;;;;5.50;2.53;;;26.30;99.90;;;;;;5052874;28;20184;-72
2023/03/06 11:36:43;;;;;;;12.50;3.20;;;26.30;99.90;;;;;;5054273;28;20173;-73
2023/03/06 11:39:38;;;;;;;10.60;2.70;;;26.20;99.90;;;;;;5052169;28;20185;-70
2023/03/06 11:42:36;;;;;;;11.57;2.80;;;26.10;99.90;;;;;;5052593;28;20230;-73
2023/03/06 11:45:23;;;;;;;11.07;3.23;;;26.00;99.90;;;;;;5050362;28;20270;-72
2023/03/06 11:47:54;;;;;;;10.20;2.83;;;26.00;99.90;;;;;;5051058;28;20669;-70
2023/03/06 11:50:45;;;;;;;8.17;3.03;;;26.10;99.90;;;;;;5049543;28;20230;-72
2023/03/06 11:53:19;;;;;;;10.33;2.63;;;26.10;99.90;;;;;;5052453;28;20205;-72
2023/03/06 11:56:06;;;;;;;10.70;2.93;;;26.20;99.90;;;;;;5049157;28;20195;-72
2023/03/06 11:58:39;;;;;;;7.50;2.30;;;26.30;99.90;;;;;;5051384;28;20670;-72
2023/03/06 12:01:38;;;;;;;6.07;2.57;;;26.40;99.90;;;;;;5052103;28;20192;-72
2023/03/06 12:05:01;;;;;;;19.67;3.03;;;26.50;99.90;;;;;;5047570;28;20669;-72
2023/03/06 12:07:54;;;;;;;11.20;2.70;;;26.60;99.90;;;;;;5038569;28;20694;-72
2023/03/06 12:10:47;;;;;;;9.70;2.63;;;26.50;99.90;;;;;;5030213;28;20202;-72
2023/03/06 12:13:34;;;;;;;7.03;2.40;;;26.50;99.90;;;;;;5050359;28;20188;-72
2023/03/06 12:16:43;;;;;;;11.47;3.00;;;26.40;99.90;;;;;;5043896;28;20595;-72
2023/03/06 12:19:32;;;;;;;6.00;2.13;;;26.30;99.90;;;;;;5045990;28;20590;-72
2023/03/06 12:22:40;;;;;;;11.80;3.47;;;26.20;99.90;;;;;;5051413;28;20188;-72
2023/03/06 12:25:38;;;;;;;7.40;2.33;;;26.10;99.90;;;;;;5045444;28;20212;-72
2023/03/06 12:28:34;;;;;;;12.20;2.50;;;26.00;99.90;;;;;;5052058;28;20601;-72
2023/03/06 12:31:38;;;;;;;9.43;2.50;;;25.90;99.90;;;;;;5040299;28;20188;-72
2023/03/06 12:34:43;;;;;;;7.60;2.47;;;25.70;99.90;;;;;;5049222;28;20188;-72
2023/03/06 12:37:41;;;;;;;10.20;2.97;;;25.70;99.90;;;;;;5040627;28;20193;-72
2023/03/06 12:40:33;;;;;;;8.90;2.67;;;25.60;99.90;;;;;;5051827;28;20286;-72
2023/03/06 12:43:28;;;;;;;6.80;2.30;;;25.50;99.90;;;;;;5036980;28;20554;-73
2023/03/06 12:46:21;;;;;;;7.73;2.40;;;25.50;99.90;;;;;;5040952;28;20211;-72
2023/03/06 12:49:09;;;;;;;11.47;2.50;;;25.40;99.90;;;;;;5041735;28;20221;-72
2023/03/06 12:51:38;;;;;;;10.97;2.53;;;25.30;99.90;;;;;;5047862;28;20177;-72
2023/03/06 12:54:06;;;;;;;9.87;2.73;;;25.10;99.90;;;;;;5050814;28;20242;-72
2023/03/06 12:56:34;;;;;;;11.70;2.90;;;25.00;99.90;;;;;;5050013;28;20200;-72
2023/03/06 12:59:02;;;;;;;10.47;2.80;;;25.00;99.90;;;;;;5049883;28;20198;-72
2023/03/06 13:01:55;;;;;;;10.87;2.70;;;25.00;99.90;;;;;;5048012;28;20192;-72
2023/03/06 13:04:42;;;;;;;11.30;3.13;;;24.90;99.90;;;;;;5049742;28;20280;-72
2023/03/06 13:07:33;;;;;;;9.23;2.87;;;24.90;99.90;;;;;;5048579;28;20219;-72
2023/03/06 13:10:09;;;;;;;8.20;2.60;;;24.80;99.90;;;;;;5049515;28;20203;-72
2023/03/06 13:12:42;;;;;;;14.03;2.70;;;24.90;99.90;;;;;;5051321;28;20191;-72
2023/03/06 13:15:36;;;;;;;19.73;4.00;;;24.80;99.90;;;;;;5050383;28;20648;-72
2023/03/06 13:18:32;;;;;;;13.73;3.23;;;24.80;99.90;;;;;;5050896;28;20227;-72
2023/03/06 13:21:00;;;;;;;13.27;3.73;;;24.60;99.90;;;;;;5034832;28;20201;-72
2023/03/06 13:23:37;;;;;;;15.50;3.00;;;24.50;99.90;;;;;;5048814;28;20229;-72